createdAt,value
2023-07-03T00:02:24.880Z,20.22
2023-07-03T00:04:52.400Z,20.12
2023-07-03T00:07:20.657Z,20.00
2023-07-03T00:09:48.473Z,19.96
2023-07-03T00:12:15.748Z,19.93
2023-07-03T00:14:43.053Z,19.92
2023-07-03T00:17:11.930Z,19.99
2023-07-03T00:19:39.404Z,19.92
2023-07-03T00:22:07.071Z,19.82
2023-07-03T00:24:34.472Z,19.67
2023-07-03T00:27:01.945Z,19.58
2023-07-03T00:29:30.906Z,19.58
2023-07-03T00:31:58.494Z,19.58
2023-07-03T00:34:27.953Z,19.43
2023-07-03T00:36:55.747Z,19.46
2023-07-03T00:39:23.122Z,19.37
2023-07-03T00:41:50.972Z,19.50
2023-07-03T00:44:20.000Z,19.41
2023-07-03T00:46:50.324Z,19.31
2023-07-03T00:49:18.094Z,19.28
2023-07-03T00:51:51.268Z,19.24
2023-07-03T00:54:18.636Z,19.16
2023-07-03T00:56:45.932Z,19.05
2023-07-03T00:59:14.257Z,19.05
2023-07-03T01:01:46.884Z,19.06
2023-07-03T01:04:18.818Z,19.14
2023-07-03T01:06:51.437Z,19.33
2023-07-03T01:09:22.184Z,19.10
2023-07-03T01:11:50.061Z,18.99
2023-07-03T01:14:20.567Z,19.12
2023-07-03T01:16:49.674Z,18.82
2023-07-03T01:19:22.856Z,18.95
2023-07-03T01:21:57.337Z,18.82
2023-07-03T01:24:41.441Z,18.71
2023-07-03T01:27:12.103Z,18.78
2023-07-03T01:29:41.311Z,18.84
2023-07-03T01:32:11.666Z,18.68
2023-07-03T01:34:41.687Z,18.48
2023-07-03T01:37:09.387Z,18.45
2023-07-03T01:39:38.688Z,18.24
2023-07-03T01:42:07.937Z,18.14
2023-07-03T01:44:35.163Z,17.94
2023-07-03T01:47:08.092Z,18.06
2023-07-03T01:49:35.556Z,18.11
2023-07-03T01:52:09.976Z,17.90
2023-07-03T01:54:45.971Z,17.75
2023-07-03T01:57:19.053Z,17.58
2023-07-03T01:59:48.422Z,17.42
2023-07-03T02:02:22.427Z,17.49
2023-07-03T02:04:55.053Z,17.41
2023-07-03T02:07:22.994Z,17.55
2023-07-03T02:09:51.956Z,17.49
2023-07-03T02:12:19.424Z,17.35
2023-07-03T02:14:46.711Z,17.30
2023-07-03T02:17:14.170Z,17.51
2023-07-03T02:19:41.530Z,17.46
2023-07-03T02:22:08.956Z,17.41
2023-07-03T02:24:36.184Z,17.31
2023-07-03T02:27:05.828Z,17.23
2023-07-03T02:29:33.109Z,17.14
2023-07-03T02:32:00.414Z,17.20
2023-07-03T02:34:29.573Z,17.31
2023-07-03T02:37:00.191Z,17.34
2023-07-03T02:39:27.516Z,17.11
2023-07-03T02:41:54.854Z,17.03
2023-07-03T02:44:23.453Z,16.96
2023-07-03T02:46:50.884Z,16.79
2023-07-03T02:49:18.347Z,16.69
2023-07-03T02:51:45.655Z,16.48
2023-07-03T02:54:12.977Z,16.56
2023-07-03T02:56:40.332Z,16.52
2023-07-03T02:59:07.620Z,16.51
2023-07-03T03:01:37.560Z,16.66
2023-07-03T03:04:04.913Z,16.55
2023-07-03T03:06:32.742Z,16.52
2023-07-03T03:09:00.251Z,16.52
2023-07-03T03:11:27.511Z,16.62
2023-07-03T03:13:54.896Z,16.69
2023-07-03T03:16:22.618Z,16.69
2023-07-03T03:18:51.782Z,16.79
2023-07-03T03:21:19.048Z,16.79
2023-07-03T03:23:46.733Z,16.81
2023-07-03T03:26:14.483Z,16.81
2023-07-03T03:28:41.795Z,16.83
2023-07-03T03:31:09.568Z,16.97
2023-07-03T03:33:36.858Z,17.06
2023-07-03T03:36:05.886Z,17.20
2023-07-03T03:38:33.129Z,17.27
2023-07-03T03:41:02.133Z,17.32
2023-07-03T03:43:29.402Z,17.34
2023-07-03T03:45:57.458Z,17.48
2023-07-03T03:48:26.336Z,17.55
2023-07-03T03:50:53.966Z,17.63
2023-07-03T03:53:23.235Z,17.71
2023-07-03T03:55:51.668Z,17.75
2023-07-03T03:58:20.160Z,17.87
2023-07-03T04:00:48.002Z,18.00
2023-07-03T04:03:15.289Z,18.11
2023-07-03T04:05:42.845Z,18.18
2023-07-03T04:08:10.448Z,18.23
2023-07-03T04:10:40.127Z,18.16
2023-07-03T04:13:07.370Z,18.16
2023-07-03T04:15:36.672Z,18.10
2023-07-03T04:18:04.209Z,18.01
2023-07-03T04:20:31.521Z,18.01
2023-07-03T04:22:58.828Z,18.00
2023-07-03T04:25:26.155Z,17.86
2023-07-03T04:27:54.820Z,17.99
2023-07-03T04:30:22.095Z,18.10
2023-07-03T04:32:55.054Z,18.07
2023-07-03T04:35:23.079Z,18.09
2023-07-03T04:37:53.029Z,18.13
2023-07-03T04:40:20.434Z,18.21
2023-07-03T04:42:47.709Z,18.21
2023-07-03T04:45:17.397Z,18.31
2023-07-03T04:47:44.853Z,18.52
2023-07-03T04:50:16.800Z,18.68
2023-07-03T04:52:45.249Z,18.85
2023-07-03T04:55:13.756Z,18.91
2023-07-03T04:57:43.266Z,19.00
2023-07-03T05:00:16.321Z,19.16
2023-07-03T05:02:46.429Z,19.47
2023-07-03T05:05:14.935Z,19.57
2023-07-03T05:07:43.333Z,19.55
2023-07-03T05:10:12.726Z,19.54
2023-07-03T05:12:40.447Z,19.67
2023-07-03T05:15:09.762Z,19.79
2023-07-03T05:17:39.974Z,19.85
2023-07-03T05:20:13.110Z,20.02
2023-07-03T05:22:43.665Z,20.05
2023-07-03T05:25:12.794Z,20.16
2023-07-03T05:27:40.475Z,20.50
2023-07-03T05:30:09.249Z,20.33
2023-07-03T05:32:36.862Z,20.43
2023-07-03T05:35:05.453Z,20.51
2023-07-03T05:37:35.225Z,20.53
2023-07-03T05:40:03.078Z,20.48
2023-07-03T05:42:30.322Z,20.40
2023-07-03T05:44:57.780Z,20.44
2023-07-03T05:47:25.212Z,20.54
2023-07-03T05:49:53.783Z,20.68
2023-07-03T05:52:21.066Z,20.70
2023-07-03T05:54:49.877Z,20.68
2023-07-03T05:57:17.100Z,20.85
2023-07-03T05:59:44.355Z,21.19
2023-07-03T06:02:14.570Z,21.08
2023-07-03T06:04:42.657Z,21.21
2023-07-03T06:07:10.541Z,21.29
2023-07-03T06:09:38.839Z,21.43
2023-07-03T06:12:08.840Z,21.45
2023-07-03T06:14:36.340Z,21.38
2023-07-03T06:17:03.847Z,21.45
2023-07-03T06:19:31.597Z,21.49
2023-07-03T06:21:58.933Z,21.29
2023-07-03T06:24:26.487Z,21.40
2023-07-03T06:26:54.061Z,21.26
2023-07-03T06:29:22.757Z,21.45
2023-07-03T06:31:50.485Z,21.63
2023-07-03T06:34:17.744Z,21.43
2023-07-03T06:36:45.341Z,21.67
2023-07-03T06:39:16.162Z,21.84
2023-07-03T06:41:43.463Z,21.69
2023-07-03T06:44:15.884Z,21.83
2023-07-03T06:46:45.341Z,21.63
2023-07-03T06:49:13.485Z,21.86
2023-07-03T06:51:41.725Z,21.80
2023-07-03T06:54:09.129Z,22.00
2023-07-03T06:56:36.745Z,22.19
2023-07-03T06:59:04.089Z,22.35
2023-07-03T07:01:31.412Z,22.41
2023-07-03T07:04:00.256Z,22.26
2023-07-03T07:06:30.273Z,22.29
2023-07-03T07:08:58.424Z,22.62
2023-07-03T07:11:27.397Z,22.46
2023-07-03T07:13:57.362Z,22.59
2023-07-03T07:16:27.245Z,22.70
2023-07-03T07:18:56.048Z,22.91
2023-07-03T07:21:25.154Z,23.04
2023-07-03T07:23:54.768Z,23.24
2023-07-03T07:26:23.173Z,23.32
2023-07-03T07:28:50.731Z,23.31
2023-07-03T07:31:22.186Z,23.32
2023-07-03T07:33:49.821Z,23.49
2023-07-03T07:36:18.966Z,23.51
2023-07-03T07:38:49.271Z,23.68
2023-07-03T07:41:16.512Z,23.17
2023-07-03T07:43:43.774Z,23.76
2023-07-03T07:46:11.206Z,23.86
2023-07-03T07:48:38.527Z,24.18
2023-07-03T07:51:08.859Z,24.07
2023-07-03T07:53:36.173Z,24.09
2023-07-03T07:56:05.422Z,23.87
2023-07-03T07:58:32.721Z,23.87
2023-07-03T08:01:00.237Z,23.99
2023-07-03T08:03:28.336Z,23.85
2023-07-03T08:05:58.232Z,23.85
2023-07-03T08:08:27.477Z,23.93
2023-07-03T08:10:59.674Z,24.37
2023-07-03T08:13:29.855Z,24.82
2023-07-03T08:15:57.539Z,24.18
2023-07-03T08:18:25.452Z,24.68
2023-07-03T08:20:53.841Z,24.58
2023-07-03T08:23:21.569Z,24.62
2023-07-03T08:25:51.201Z,24.31
2023-07-03T08:28:19.575Z,24.02
2023-07-03T08:30:48.263Z,24.25
2023-07-03T08:33:15.896Z,24.18
2023-07-03T08:38:14.142Z,24.16
2023-07-03T08:40:43.290Z,24.06
2023-07-03T08:43:15.287Z,24.12
2023-07-03T08:45:45.222Z,24.20
2023-07-03T08:48:17.116Z,24.43
2023-07-03T08:50:47.614Z,24.31
2023-07-03T08:53:18.723Z,24.72
2023-07-03T08:55:50.896Z,24.69
2023-07-03T08:58:18.216Z,24.43
2023-07-03T09:00:54.185Z,24.88
2023-07-03T09:03:32.403Z,24.82
2023-07-03T09:06:09.072Z,24.81
2023-07-03T09:08:47.679Z,24.52
2023-07-03T09:11:17.279Z,24.35
2023-07-03T09:13:47.988Z,24.09
2023-07-03T09:16:21.187Z,24.37
2023-07-03T09:18:54.863Z,24.41
2023-07-03T09:21:23.768Z,24.67
2023-07-03T09:23:58.847Z,24.71
2023-07-03T09:26:34.807Z,24.69
2023-07-03T09:29:04.346Z,24.99
2023-07-03T09:31:31.732Z,25.10
2023-07-03T09:34:00.731Z,25.43
2023-07-03T09:36:35.947Z,25.58
2023-07-03T09:39:09.210Z,25.22
2023-07-03T09:41:37.245Z,25.55
2023-07-03T09:44:08.161Z,25.20
2023-07-03T09:46:35.762Z,24.98
2023-07-03T09:49:06.184Z,25.10
2023-07-03T09:51:37.422Z,25.24
2023-07-03T09:54:07.570Z,25.31
2023-07-03T09:56:36.975Z,25.15
2023-07-03T09:59:06.172Z,24.68
2023-07-03T10:06:40.736Z,24.88
2023-07-03T10:11:53.633Z,24.45
2023-07-03T10:14:28.853Z,24.40
2023-07-03T10:16:56.534Z,24.62
2023-07-03T10:19:25.788Z,24.58
2023-07-03T10:21:54.228Z,24.20
2023-07-03T10:24:22.306Z,24.34
2023-07-03T10:26:54.671Z,24.50
2023-07-03T10:29:29.981Z,24.40
2023-07-03T10:32:00.988Z,24.72
2023-07-03T10:34:38.571Z,24.57
2023-07-03T10:37:09.170Z,24.35
2023-07-03T10:39:45.120Z,24.34
2023-07-03T10:42:18.886Z,24.31
2023-07-03T10:44:48.045Z,24.28
2023-07-03T10:47:24.326Z,24.35
2023-07-03T10:49:53.207Z,24.83
2023-07-03T10:52:32.540Z,24.99
2023-07-03T10:55:09.061Z,24.67
2023-07-03T10:57:44.831Z,24.69
2023-07-03T11:00:18.906Z,25.06
2023-07-03T11:02:55.459Z,25.33
2023-07-03T11:05:30.765Z,25.17
2023-07-03T11:08:08.138Z,25.08
2023-07-03T11:10:42.850Z,24.68
2023-07-03T11:13:16.611Z,24.40
2023-07-03T11:15:53.546Z,24.17
2023-07-03T11:23:53.220Z,23.87
2023-07-03T11:29:01.176Z,23.96
2023-07-03T11:31:28.862Z,24.06
2023-07-03T11:44:43.112Z,23.63
2023-07-03T11:47:14.580Z,23.44
2023-07-03T11:49:45.564Z,23.45
2023-07-03T11:52:26.714Z,23.37
2023-07-03T11:55:00.789Z,23.17
2023-07-03T11:57:31.101Z,23.27
2023-07-03T12:00:19.825Z,23.30
2023-07-03T12:02:54.533Z,23.48
2023-07-03T12:05:50.805Z,23.54
2023-07-03T12:08:50.120Z,23.39
2023-07-03T12:11:17.962Z,23.75
2023-07-03T12:13:52.286Z,23.62
2023-07-03T12:16:23.058Z,23.80
2023-07-03T12:19:02.008Z,23.76
2023-07-03T12:21:44.956Z,23.68
2023-07-03T12:24:26.561Z,23.66
2023-07-03T12:26:57.427Z,23.66
2023-07-03T12:29:26.617Z,23.66
2023-07-03T12:31:58.731Z,23.69
2023-07-03T12:34:29.647Z,23.77
2023-07-03T12:37:02.518Z,23.52
2023-07-03T12:39:31.943Z,23.47
2023-07-03T12:42:09.419Z,23.62
2023-07-03T12:44:37.525Z,23.70
2023-07-03T12:47:10.180Z,23.58
2023-07-03T12:50:01.791Z,23.47
2023-07-03T12:52:31.493Z,23.75
2023-07-03T12:57:35.625Z,23.66
2023-07-03T13:00:07.933Z,23.66
2023-07-03T13:02:36.541Z,23.57
2023-07-03T13:05:07.433Z,23.30
2023-07-03T13:07:35.894Z,23.42
2023-07-03T13:10:12.302Z,23.28
2023-07-03T13:12:40.042Z,23.31
2023-07-03T13:15:10.608Z,23.54
2023-07-03T13:17:40.287Z,23.76
2023-07-03T13:20:19.455Z,23.95
2023-07-03T13:22:48.719Z,24.44
2023-07-03T13:25:27.810Z,24.78
2023-07-03T13:27:56.571Z,24.81
2023-07-03T13:30:27.422Z,25.00
2023-07-03T13:35:51.590Z,25.89
2023-07-03T13:38:28.854Z,25.60
2023-07-03T13:40:59.797Z,25.82
2023-07-03T13:43:29.523Z,25.40
2023-07-03T13:45:57.922Z,25.64
2023-07-03T13:48:26.469Z,25.82
2023-07-03T13:50:55.291Z,25.81
2023-07-03T13:53:24.339Z,25.41
2023-07-03T13:55:52.143Z,25.63
2023-07-03T13:58:21.120Z,25.67
2023-07-03T14:00:48.602Z,25.53
2023-07-03T14:03:17.651Z,25.24
2023-07-03T14:05:45.234Z,25.36
2023-07-03T14:08:12.627Z,25.34
2023-07-03T14:10:39.919Z,25.65
2023-07-03T14:13:07.469Z,25.48
2023-07-03T14:15:37.146Z,25.31
2023-07-03T14:18:04.782Z,25.30
2023-07-03T14:20:32.795Z,25.36
2023-07-03T14:23:00.148Z,25.50
2023-07-03T14:25:27.523Z,25.38
2023-07-03T14:27:54.891Z,25.26
2023-07-03T14:30:22.259Z,25.29
2023-07-03T14:32:56.082Z,25.46
2023-07-03T14:35:24.614Z,25.65
2023-07-03T14:37:52.135Z,25.36
2023-07-03T14:40:19.472Z,25.37
2023-07-03T14:42:47.317Z,25.65
2023-07-03T14:45:14.812Z,25.67
2023-07-03T14:47:42.372Z,25.43
2023-07-03T14:50:12.983Z,25.71
2023-07-03T14:52:42.040Z,25.55
2023-07-03T14:55:09.982Z,25.41
2023-07-03T14:57:37.363Z,25.27
2023-07-03T15:00:05.684Z,25.33
2023-07-03T15:02:33.101Z,25.29
2023-07-03T15:05:00.461Z,25.31
2023-07-03T15:07:29.217Z,25.33
2023-07-03T15:09:56.572Z,25.55
2023-07-03T15:12:24.857Z,25.23
2023-07-03T15:14:52.162Z,25.30
2023-07-03T15:17:19.584Z,25.34
2023-07-03T15:19:46.991Z,25.24
2023-07-03T15:22:14.701Z,25.20
2023-07-03T15:24:44.133Z,25.29
2023-07-03T15:27:11.553Z,25.27
2023-07-03T15:29:38.849Z,25.24
2023-07-03T15:32:07.034Z,25.60
2023-07-03T15:34:34.650Z,25.80
2023-07-03T15:37:01.916Z,25.58
2023-07-03T15:39:29.204Z,25.58
2023-07-03T15:41:57.998Z,25.68
2023-07-03T15:44:25.353Z,25.61
2023-07-03T15:46:53.318Z,25.26
2023-07-03T15:49:20.882Z,25.27
2023-07-03T15:51:49.477Z,25.22
2023-07-03T15:54:16.813Z,25.34
2023-07-03T15:56:44.221Z,25.38
2023-07-03T15:59:13.445Z,25.27
2023-07-03T16:01:40.751Z,25.13
2023-07-03T16:04:09.898Z,25.10
2023-07-03T16:06:37.858Z,25.20
2023-07-03T16:09:05.344Z,24.90
2023-07-03T16:11:36.393Z,24.83
2023-07-03T16:14:03.844Z,24.65
2023-07-03T16:16:32.632Z,24.68
2023-07-03T16:19:01.473Z,24.52
2023-07-03T16:21:31.702Z,24.45
2023-07-03T16:23:59.388Z,24.48
2023-07-03T16:26:27.940Z,24.44
2023-07-03T16:28:55.804Z,24.45
2023-07-03T16:31:24.537Z,24.25
2023-07-03T16:33:55.605Z,24.27
2023-07-03T16:36:24.216Z,24.18
2023-07-03T16:38:53.621Z,24.09
2023-07-03T16:41:21.978Z,24.30
2023-07-03T16:43:50.628Z,24.09
2023-07-03T16:46:20.180Z,24.02
2023-07-03T16:48:48.455Z,23.92
2023-07-03T16:51:18.542Z,23.92
2023-07-03T16:53:46.240Z,23.85
2023-07-03T16:56:15.011Z,23.86
2023-07-03T16:58:44.407Z,23.75
2023-07-03T17:01:13.796Z,23.85
2023-07-03T17:03:41.522Z,23.79
2023-07-03T17:06:13.466Z,23.73
2023-07-03T17:08:42.348Z,23.62
2023-07-03T17:11:28.434Z,23.66
2023-07-03T17:13:56.438Z,23.65
2023-07-03T17:16:23.961Z,23.72
2023-07-03T17:18:51.309Z,23.62
2023-07-03T17:21:18.868Z,23.66
2023-07-03T17:23:49.744Z,23.58
2023-07-03T17:26:17.304Z,23.55
2023-07-03T17:28:44.602Z,23.55
2023-07-03T17:31:11.915Z,23.51
2023-07-03T17:33:39.203Z,23.44
2023-07-03T17:36:06.626Z,23.38
2023-07-03T17:38:34.897Z,23.44
2023-07-03T17:41:06.837Z,23.37
2023-07-03T17:43:34.377Z,23.41
2023-07-03T17:46:02.153Z,23.30
2023-07-03T17:48:30.039Z,23.28
2023-07-03T17:50:57.371Z,23.18
2023-07-03T17:53:24.829Z,23.17
2023-07-03T17:55:53.073Z,23.06
2023-07-03T17:58:22.913Z,23.00
2023-07-03T18:00:52.677Z,22.96
2023-07-03T18:03:20.938Z,22.99
2023-07-03T18:05:48.466Z,22.87
2023-07-03T18:08:15.752Z,22.82
2023-07-03T18:10:43.054Z,22.67
2023-07-03T18:13:12.963Z,22.72
2023-07-03T18:15:54.635Z,22.69
2023-07-03T18:18:22.371Z,22.63
2023-07-03T18:20:51.526Z,22.48
2023-07-03T18:23:18.805Z,22.53
2023-07-03T18:25:47.074Z,22.55
2023-07-03T18:28:14.438Z,22.44
2023-07-03T18:30:43.138Z,22.29
2023-07-03T18:33:10.501Z,22.22
2023-07-03T18:35:38.138Z,22.25
2023-07-03T18:38:05.775Z,22.31
2023-07-03T18:40:33.203Z,22.26
2023-07-03T18:43:00.551Z,22.21
2023-07-03T18:45:27.809Z,22.18
2023-07-03T18:47:56.728Z,22.21
2023-07-03T18:50:24.076Z,22.01
2023-07-03T18:52:51.457Z,22.07
2023-07-03T18:55:19.456Z,22.19
2023-07-03T18:57:47.483Z,22.08
2023-07-03T19:00:15.962Z,22.05
2023-07-03T19:02:46.257Z,22.14
2023-07-03T19:05:15.656Z,22.05
2023-07-03T19:07:45.807Z,22.04
2023-07-03T19:10:18.176Z,21.96
2023-07-03T19:12:46.740Z,21.93
2023-07-03T19:15:14.039Z,21.87
2023-07-03T19:17:41.542Z,21.84
2023-07-03T19:20:11.530Z,21.81
2023-07-03T19:22:40.432Z,21.69
2023-07-03T19:25:08.925Z,21.66
2023-07-03T19:27:36.194Z,21.56
2023-07-03T19:30:03.890Z,21.71
2023-07-03T19:32:31.215Z,21.78
2023-07-03T19:34:58.477Z,21.64
2023-07-03T19:37:25.769Z,21.61
2023-07-03T19:39:54.443Z,21.66
2023-07-03T19:42:21.929Z,21.60
2023-07-03T19:44:49.428Z,21.54
2023-07-03T19:47:16.958Z,21.54
2023-07-03T19:49:44.901Z,21.42
2023-07-03T19:52:13.343Z,21.29
2023-07-03T19:54:40.720Z,21.25
2023-07-03T19:57:10.420Z,21.39
2023-07-03T19:59:38.071Z,21.39
2023-07-03T20:02:06.827Z,21.33
2023-07-03T20:04:34.436Z,21.18
2023-07-03T20:07:01.862Z,21.06
2023-07-03T20:09:30.002Z,21.02
2023-07-03T20:11:57.371Z,21.11
2023-07-03T20:14:26.144Z,21.11
2023-07-03T20:16:53.646Z,20.96
2023-07-03T20:19:20.994Z,20.92
2023-07-03T20:21:48.909Z,20.99
2023-07-03T20:24:16.239Z,21.32
2023-07-03T20:26:43.529Z,21.38
2023-07-03T20:29:10.998Z,21.22
2023-07-03T20:31:39.712Z,21.08
2023-07-03T20:34:07.081Z,20.99
2023-07-03T20:36:35.660Z,20.92
2023-07-03T20:39:05.117Z,20.99
2023-07-03T20:41:35.502Z,21.05
2023-07-03T20:44:06.028Z,21.02
2023-07-03T20:46:34.920Z,20.99
2023-07-03T20:49:04.670Z,21.08
2023-07-03T20:51:34.995Z,21.01
2023-07-03T20:54:05.923Z,20.83
2023-07-03T20:56:37.600Z,20.78
2023-07-03T20:59:04.877Z,20.83
2023-07-03T21:01:34.016Z,20.84
2023-07-03T21:04:04.880Z,20.75
2023-07-03T21:06:34.437Z,20.70
2023-07-03T21:09:02.516Z,20.81
2023-07-03T21:11:31.263Z,20.71
2023-07-03T21:14:00.481Z,20.71
2023-07-03T21:16:27.882Z,20.70
2023-07-03T21:18:55.407Z,20.75
2023-07-03T21:21:25.932Z,20.83
2023-07-03T21:23:53.600Z,20.73
2023-07-03T21:26:22.390Z,20.70
2023-07-03T21:28:51.647Z,20.67
2023-07-03T21:31:20.186Z,20.75
2023-07-03T21:33:47.525Z,20.91
2023-07-03T21:36:17.620Z,21.08
2023-07-03T21:38:47.113Z,20.91
2023-07-03T21:41:16.578Z,20.81
2023-07-03T21:43:48.852Z,20.71
2023-07-03T21:46:16.979Z,20.68
2023-07-03T21:48:44.739Z,20.61
2023-07-03T21:51:14.152Z,20.64
2023-07-03T21:53:41.433Z,20.65
2023-07-03T21:56:12.125Z,20.73
2023-07-03T21:58:40.975Z,20.71
2023-07-03T22:01:16.682Z,20.70
2023-07-03T22:03:44.065Z,20.70
2023-07-03T22:06:11.631Z,20.96
2023-07-03T22:08:38.922Z,20.99
2023-07-03T22:11:06.272Z,20.90
2023-07-03T22:13:35.384Z,20.85
2023-07-03T22:16:03.061Z,20.92
2023-07-03T22:18:30.455Z,20.92
2023-07-03T22:20:58.161Z,20.96
2023-07-03T22:23:32.018Z,20.87
2023-07-03T22:26:01.567Z,20.81
2023-07-03T22:28:30.184Z,20.81
2023-07-03T22:30:59.473Z,20.78
2023-07-03T22:33:26.835Z,20.78
2023-07-03T22:35:54.612Z,20.74
2023-07-03T22:38:22.095Z,20.77
2023-07-03T22:40:50.718Z,20.74
2023-07-03T22:43:17.993Z,20.74
2023-07-03T22:45:45.708Z,20.71
2023-07-03T22:48:14.825Z,20.74
2023-07-03T22:50:42.837Z,20.81
2023-07-03T22:53:11.078Z,20.78
2023-07-03T22:55:40.322Z,20.46
2023-07-03T22:58:08.639Z,20.40
2023-07-03T23:00:38.403Z,20.15
2023-07-03T23:03:05.790Z,20.15
2023-07-03T23:05:35.695Z,19.86
2023-07-03T23:08:03.321Z,19.78
2023-07-03T23:10:30.878Z,19.57
2023-07-03T23:12:58.137Z,19.49
2023-07-03T23:15:26.930Z,19.44
2023-07-03T23:17:54.211Z,19.41
2023-07-03T23:20:22.536Z,19.41
2023-07-03T23:22:51.268Z,19.43
2023-07-03T23:25:18.599Z,19.47
2023-07-03T23:27:46.442Z,19.62
2023-07-03T23:30:13.955Z,19.50
2023-07-03T23:32:41.225Z,19.37
2023-07-03T23:35:12.151Z,19.23
2023-07-03T23:37:42.417Z,19.05
2023-07-03T23:40:12.263Z,18.82
2023-07-03T23:42:40.112Z,19.10
2023-07-03T23:45:09.139Z,19.06
2023-07-03T23:47:37.021Z,19.49
2023-07-03T23:50:04.829Z,19.34
2023-07-03T23:52:32.142Z,19.22
2023-07-03T23:54:59.593Z,19.22
2023-07-03T23:57:29.214Z,19.17
2023-07-03T23:59:57.074Z,19.16
